Terminal Aerodrome Forecast
Issued by NWS

Home | Current Version | Previous Version | Graphics & Text | Print | Product List | Glossary On
Versions: 1 2 3 4 5 6 7 8 9 10 11 12 13 14 15 16 17 18
000
FTUS43 KICT 262324
TAFHUT
TAF
KHUT 262324Z 2700/2724 17014G20KT P6SM SKC
     FM270100 16008KT P6SM SKC
     FM270800 17008KT P6SM VCSH SCT100 BKN250
     FM271500 18013KT P6SM SCT250
     FM271800 18017G25KT P6SM SCT250=

USA.gov is the U.S. government's official web portal to all federal, state and local government web resources and services.